sensor_id;sensor_type;location;lat;lon;timestamp;pressure;altitude;pressure_sealevel;temperature;humidity
72636;BME280;60679;48.888;15.544;2024-02-14T00:01:00;96714.00;;;-1.19;95.23
72636;BME280;60679;48.888;15.544;2024-02-14T00:03:26;96709.84;;;-1.11;95.29
72636;BME280;60679;48.888;15.544;2024-02-14T00:05:52;96714.69;;;-1.07;95.23
72636;BME280;60679;48.888;15.544;2024-02-14T00:08:18;96704.81;;;-1.14;95.31
72636;BME280;60679;48.888;15.544;2024-02-14T00:10:43;96713.31;;;-1.11;95.09
72636;BME280;60679;48.888;15.544;2024-02-14T00:13:10;96713.88;;;-1.07;95.43
72636;BME280;60679;48.888;15.544;2024-02-14T00:15:36;96712.59;;;-1.03;95.34
72636;BME280;60679;48.888;15.544;2024-02-14T00:18:02;96714.00;;;-1.09;95.24
72636;BME280;60679;48.888;15.544;2024-02-14T00:20:28;96716.94;;;-1.12;95.33
72636;BME280;60679;48.888;15.544;2024-02-14T00:22:53;96720.97;;;-0.98;95.35
72636;BME280;60679;48.888;15.544;2024-02-14T00:25:18;96712.03;;;-0.97;95.35
72636;BME280;60679;48.888;15.544;2024-02-14T00:27:45;96717.19;;;-0.96;95.54
72636;BME280;60679;48.888;15.544;2024-02-14T00:30:11;96712.16;;;-0.89;95.26
72636;BME280;60679;48.888;15.544;2024-02-14T00:32:36;96718.44;;;-0.90;95.39
72636;BME280;60679;48.888;15.544;2024-02-14T00:35:02;96715.38;;;-0.86;95.26
72636;BME280;60679;48.888;15.544;2024-02-14T00:37:28;96717.19;;;-0.96;95.35
72636;BME280;60679;48.888;15.544;2024-02-14T00:39:54;96724.06;;;-1.41;95.26
72636;BME280;60679;48.888;15.544;2024-02-14T00:42:21;96723.31;;;-1.82;95.14
72636;BME280;60679;48.888;15.544;2024-02-14T00:44:47;96723.31;;;-1.82;95.00
72636;BME280;60679;48.888;15.544;2024-02-14T00:47:12;96730.72;;;-1.76;95.21
72636;BME280;60679;48.888;15.544;2024-02-14T00:49:38;96732.53;;;-1.57;95.01
72636;BME280;60679;48.888;15.544;2024-02-14T00:52:04;96726.28;;;-1.56;95.20
72636;BME280;60679;48.888;15.544;2024-02-14T00:54:30;96725.72;;;-1.59;95.28
72636;BME280;60679;48.888;15.544;2024-02-14T00:56:55;96717.75;;;-1.69;95.37
72636;BME280;60679;48.888;15.544;2024-02-14T00:59:21;96720.84;;;-1.64;95.16
72636;BME280;60679;48.888;15.544;2024-02-14T01:01:46;96732.78;;;-1.79;95.29
72636;BME280;60679;48.888;15.544;2024-02-14T01:04:12;96729.56;;;-1.83;95.29
72636;BME280;60679;48.888;15.544;2024-02-14T01:06:38;96735.16;;;-1.76;95.17
72636;BME280;60679;48.888;15.544;2024-02-14T01:09:03;96733.38;;;-1.66;95.35
72636;BME280;60679;48.888;15.544;2024-02-14T01:11:29;96722.94;;;-1.48;95.46
72636;BME280;60679;48.888;15.544;2024-02-14T01:13:55;96728.94;;;-1.56;95.28
72636;BME280;60679;48.888;15.544;2024-02-14T01:16:20;96719.72;;;-1.61;95.36
72636;BME280;60679;48.888;15.544;2024-02-14T01:18:46;96723.06;;;-1.69;95.31
72636;BME280;60679;48.888;15.544;2024-02-14T01:21:11;96719.13;;;-1.75;95.21
72636;BME280;60679;48.888;15.544;2024-02-14T01:23:37;96715.22;;;-1.80;95.55
72636;BME280;60679;48.888;15.544;2024-02-14T01:26:05;96714.28;;;-1.79;95.23
72636;BME280;60679;48.888;15.544;2024-02-14T01:28:31;96713.44;;;-1.70;95.34
72636;BME280;60679;48.888;15.544;2024-02-14T01:30:57;96702.59;;;-1.67;95.49
72636;BME280;60679;48.888;15.544;2024-02-14T01:33:23;96712.31;;;-1.58;95.41
72636;BME280;60679;48.888;15.544;2024-02-14T01:35:48;96708.19;;;-1.41;95.37
72636;BME280;60679;48.888;15.544;2024-02-14T01:38:14;96709.84;;;-1.31;95.28
72636;BME280;60679;48.888;15.544;2024-02-14T01:40:42;96713.59;;;-1.24;95.37
72636;BME280;60679;48.888;15.544;2024-02-14T01:43:09;96714.59;;;-1.25;95.28
72636;BME280;60679;48.888;15.544;2024-02-14T01:45:35;96710.81;;;-1.32;95.45
72636;BME280;60679;48.888;15.544;2024-02-14T01:48:01;96714.47;;;-1.33;95.31
72636;BME280;60679;48.888;15.544;2024-02-14T01:50:29;96705.25;;;-1.29;95.10
72636;BME280;60679;48.888;15.544;2024-02-14T01:52:58;96704.97;;;-1.26;95.51
72636;BME280;60679;48.888;15.544;2024-02-14T01:55:25;96710.53;;;-1.29;95.23
72636;BME280;60679;48.888;15.544;2024-02-14T01:57:53;96708.03;;;-1.30;95.48
72636;BME280;60679;48.888;15.544;2024-02-14T02:00:18;96704.69;;;-1.32;95.26
72636;BME280;60679;48.888;15.544;2024-02-14T02:02:45;96705.94;;;-1.36;95.33
72636;BME280;60679;48.888;15.544;2024-02-14T02:05:12;96706.34;;;-1.41;95.31
72636;BME280;60679;48.888;15.544;2024-02-14T02:07:38;96703.16;;;-1.44;95.42
72636;BME280;60679;48.888;15.544;2024-02-14T02:10:09;96700.38;;;-1.43;95.33
72636;BME280;60679;48.888;15.544;2024-02-14T02:12:37;96698.28;;;-1.39;95.44
72636;BME280;60679;48.888;15.544;2024-02-14T02:15:07;96698.41;;;-1.31;95.41
72636;BME280;60679;48.888;15.544;2024-02-14T02:17:36;96704.81;;;-1.24;95.61
72636;BME280;60679;48.888;15.544;2024-02-14T02:20:01;96698.53;;;-1.23;95.37
72636;BME280;60679;48.888;15.544;2024-02-14T02:22:27;96704.00;;;-1.25;95.45
72636;BME280;60679;48.888;15.544;2024-02-14T02:24:57;96705.09;;;-1.18;95.38
72636;BME280;60679;48.888;15.544;2024-02-14T02:27:22;96700.34;;;-1.14;95.78
72636;BME280;60679;48.888;15.544;2024-02-14T02:29:48;96702.44;;;-1.18;95.39
72636;BME280;60679;48.888;15.544;2024-02-14T02:32:14;96718.91;;;-1.14;95.54
72636;BME280;60679;48.888;15.544;2024-02-14T02:34:41;96715.13;;;-1.11;95.47
72636;BME280;60679;48.888;15.544;2024-02-14T02:37:06;96707.63;;;-1.16;95.51
72636;BME280;60679;48.888;15.544;2024-02-14T02:39:34;96707.06;;;-1.20;95.27
72636;BME280;60679;48.888;15.544;2024-02-14T02:42:01;96707.06;;;-1.20;95.46
72636;BME280;60679;48.888;15.544;2024-02-14T02:44:27;96714.72;;;-1.17;95.20
72636;BME280;60679;48.888;15.544;2024-02-14T02:46:53;96706.78;;;-1.17;95.16
72636;BME280;60679;48.888;15.544;2024-02-14T02:49:18;96706.50;;;-1.13;95.63
72636;BME280;60679;48.888;15.544;2024-02-14T02:51:43;96707.34;;;-1.13;95.36
72636;BME280;60679;48.888;15.544;2024-02-14T02:54:09;96712.06;;;-1.17;95.49
72636;BME280;60679;48.888;15.544;2024-02-14T02:56:36;96711.66;;;-1.22;95.48
72636;BME280;60679;48.888;15.544;2024-02-14T02:59:02;96710.25;;;-1.26;95.34
72636;BME280;60679;48.888;15.544;2024-02-14T03:01:35;96710.09;;;-1.24;95.47
72636;BME280;60679;48.888;15.544;2024-02-14T03:04:01;96715.72;;;-1.27;95.37
72636;BME280;60679;48.888;15.544;2024-02-14T03:06:27;96716.78;;;-1.30;95.48
72636;BME280;60679;48.888;15.544;2024-02-14T03:08:52;96714.47;;;-1.33;95.41
72636;BME280;60679;48.888;15.544;2024-02-14T03:11:21;96715.16;;;-1.31;95.36
72636;BME280;60679;48.888;15.544;2024-02-14T03:13:46;96720.44;;;-1.31;95.47
72636;BME280;60679;48.888;15.544;2024-02-14T03:16:14;96713.47;;;-1.32;95.46
72636;BME280;60679;48.888;15.544;2024-02-14T03:18:40;96717.09;;;-1.33;95.35
72636;BME280;60679;48.888;15.544;2024-02-14T03:21:06;96713.75;;;-1.35;95.61
72636;BME280;60679;48.888;15.544;2024-02-14T03:23:32;96713.06;;;-1.37;95.53
72636;BME280;60679;48.888;15.544;2024-02-14T03:25:57;96712.78;;;-1.34;95.50
72636;BME280;60679;48.888;15.544;2024-02-14T03:28:24;96715.28;;;-1.23;95.51
72636;BME280;60679;48.888;15.544;2024-02-14T03:30:51;96710.09;;;-1.14;95.37
72636;BME280;60679;48.888;15.544;2024-02-14T03:33:17;96713.72;;;-1.06;95.53
72636;BME280;60679;48.888;15.544;2024-02-14T03:35:43;96718.03;;;-0.95;95.63
72636;BME280;60679;48.888;15.544;2024-02-14T03:38:08;96715.78;;;-0.90;95.19
72636;BME280;60679;48.888;15.544;2024-02-14T03:40:35;96713.56;;;-0.85;95.52
72636;BME280;60679;48.888;15.544;2024-02-14T03:43:04;96715.66;;;-0.79;95.66
72636;BME280;60679;48.888;15.544;2024-02-14T03:45:29;96714.81;;;-0.80;95.40
72636;BME280;60679;48.888;15.544;2024-02-14T03:47:55;96712.28;;;-0.81;95.73
72636;BME280;60679;48.888;15.544;2024-02-14T03:50:22;96713.81;;;-0.79;95.56
72636;BME280;60679;48.888;15.544;2024-02-14T03:52:50;96714.94;;;-0.81;95.58
72636;BME280;60679;48.888;15.544;2024-02-14T03:55:16;96710.63;;;-0.82;95.36
72636;BME280;60679;48.888;15.544;2024-02-14T03:57:46;96714.41;;;-0.85;95.51
72636;BME280;60679;48.888;15.544;2024-02-14T04:00:13;96718.88;;;-0.85;95.88
72636;BME280;60679;48.888;15.544;2024-02-14T04:02:41;96724.41;;;-0.79;95.51
72636;BME280;60679;48.888;15.544;2024-02-14T04:05:07;96712.94;;;-0.60;95.57
72636;BME280;60679;48.888;15.544;2024-02-14T04:07:33;96709.66;;;-0.44;95.84
72636;BME280;60679;48.888;15.544;2024-02-14T04:09:59;96706.53;;;-0.30;95.42
72636;BME280;60679;48.888;15.544;2024-02-14T04:12:25;96711.66;;;-0.19;95.72
72636;BME280;60679;48.888;15.544;2024-02-14T04:14:51;96703.66;;;-0.10;95.58
72636;BME280;60679;48.888;15.544;2024-02-14T04:17:16;96696.09;;;-0.05;95.70
72636;BME280;60679;48.888;15.544;2024-02-14T04:19:42;96703.22;;;-0.05;95.56
72636;BME280;60679;48.888;15.544;2024-02-14T04:22:07;96713.59;;;-0.12;95.50
72636;BME280;60679;48.888;15.544;2024-02-14T04:24:34;96711.53;;;-0.18;95.73
72636;BME280;60679;48.888;15.544;2024-02-14T04:27:00;96712.94;;;-0.23;95.46
72636;BME280;60679;48.888;15.544;2024-02-14T04:29:29;96700.56;;;-0.32;95.63
72636;BME280;60679;48.888;15.544;2024-02-14T04:31:58;96700.16;;;-0.37;95.29
72636;BME280;60679;48.888;15.544;2024-02-14T04:34:24;96713.03;;;-0.42;95.58
72636;BME280;60679;48.888;15.544;2024-02-14T04:36:49;96707.00;;;-0.44;95.60
72636;BME280;60679;48.888;15.544;2024-02-14T04:39:15;96702.16;;;-0.49;95.61
72636;BME280;60679;48.888;15.544;2024-02-14T04:41:40;96710.41;;;-0.52;95.61
72636;BME280;60679;48.888;15.544;2024-02-14T04:44:06;96711.81;;;-0.57;95.56
72636;BME280;60679;48.888;15.544;2024-02-14T04:46:32;96716.44;;;-0.60;95.71
72636;BME280;60679;48.888;15.544;2024-02-14T04:48:58;96716.72;;;-0.63;95.48
72636;BME280;60679;48.888;15.544;2024-02-14T04:51:23;96711.81;;;-0.67;95.51
72636;BME280;60679;48.888;15.544;2024-02-14T04:53:49;96711.31;;;-0.71;95.50
72636;BME280;60679;48.888;15.544;2024-02-14T04:56:14;96715.09;;;-0.83;95.57
72636;BME280;60679;48.888;15.544;2024-02-14T04:58:40;96716.91;;;-0.93;95.52
72636;BME280;60679;48.888;15.544;2024-02-14T05:01:06;96716.78;;;-1.01;95.51
72636;BME280;60679;48.888;15.544;2024-02-14T05:03:32;96717.34;;;-1.07;95.44
72636;BME280;60679;48.888;15.544;2024-02-14T05:05:57;96714.44;;;-1.13;95.55
72636;BME280;60679;48.888;15.544;2024-02-14T05:08:24;96713.88;;;-1.17;95.52
72636;BME280;60679;48.888;15.544;2024-02-14T05:10:53;96712.19;;;-1.18;95.49
72636;BME280;60679;48.888;15.544;2024-02-14T05:13:18;96712.47;;;-1.21;95.60
72636;BME280;60679;48.888;15.544;2024-02-14T05:15:44;96709.56;;;-1.28;95.45
72636;BME280;60679;48.888;15.544;2024-02-14T05:18:09;96708.88;;;-1.39;95.43
72636;BME280;60679;48.888;15.544;2024-02-14T05:20:35;96713.59;;;-1.43;95.55
72636;BME280;60679;48.888;15.544;2024-02-14T05:23:00;96707.91;;;-1.48;95.33
72636;BME280;60679;48.888;15.544;2024-02-14T05:25:26;96721.25;;;-1.49;95.55
72636;BME280;60679;48.888;15.544;2024-02-14T05:27:55;96719.59;;;-1.50;95.50
72636;BME280;60679;48.888;15.544;2024-02-14T05:30:20;96724.31;;;-1.63;95.55
72636;BME280;60679;48.888;15.544;2024-02-14T05:32:49;96726.53;;;-1.68;95.45
72636;BME280;60679;48.888;15.544;2024-02-14T05:35:16;96716.66;;;-1.76;95.69
72636;BME280;60679;48.888;15.544;2024-02-14T05:37:42;96724.16;;;-1.81;95.58
72636;BME280;60679;48.888;15.544;2024-02-14T05:40:08;96722.63;;;-1.84;95.75
72636;BME280;60679;48.888;15.544;2024-02-14T05:42:33;96722.44;;;-1.92;95.29
72636;BME280;60679;48.888;15.544;2024-02-14T05:44:59;96718.41;;;-1.96;95.69
72636;BME280;60679;48.888;15.544;2024-02-14T05:47:25;96722.59;;;-1.93;95.52
72636;BME280;60679;48.888;15.544;2024-02-14T05:49:51;96727.19;;;-1.86;95.68
72636;BME280;60679;48.888;15.544;2024-02-14T05:52:16;96719.53;;;-1.89;95.65
72636;BME280;60679;48.888;15.544;2024-02-14T05:54:43;96725.41;;;-1.85;95.59
72636;BME280;60679;48.888;15.544;2024-02-14T05:57:09;96729.03;;;-1.77;95.75
72636;BME280;60679;48.888;15.544;2024-02-14T05:59:34;96717.22;;;-1.63;95.43
72636;BME280;60679;48.888;15.544;2024-02-14T06:02:00;96722.91;;;-1.58;95.60
72636;BME280;60679;48.888;15.544;2024-02-14T06:04:28;96731.44;;;-1.54;95.65
72636;BME280;60679;48.888;15.544;2024-02-14T06:06:53;96725.03;;;-1.52;95.50
72636;BME280;60679;48.888;15.544;2024-02-14T06:09:19;96722.09;;;-1.49;95.65
72636;BME280;60679;48.888;15.544;2024-02-14T06:11:46;96723.06;;;-1.40;95.75
72636;BME280;60679;48.888;15.544;2024-02-14T06:14:12;96728.38;;;-1.31;95.56
72636;BME280;60679;48.888;15.544;2024-02-14T06:16:41;96722.94;;;-1.20;95.59
72636;BME280;60679;48.888;15.544;2024-02-14T06:19:06;96725.44;;;-1.08;95.60
72636;BME280;60679;48.888;15.544;2024-02-14T06:21:32;96730.75;;;-0.99;95.71
72636;BME280;60679;48.888;15.544;2024-02-14T06:23:58;96722.75;;;-0.89;95.48
72636;BME280;60679;48.888;15.544;2024-02-14T06:26:24;96727.09;;;-0.98;95.36
72636;BME280;60679;48.888;15.544;2024-02-14T06:28:50;96733.38;;;-1.18;95.25
72636;BME280;60679;48.888;15.544;2024-02-14T06:31:22;96733.53;;;-1.29;95.06
72636;BME280;60679;48.888;15.544;2024-02-14T06:33:48;96728.81;;;-1.26;94.96
72636;BME280;60679;48.888;15.544;2024-02-14T06:36:13;96735.50;;;-1.22;95.20
72636;BME280;60679;48.888;15.544;2024-02-14T06:38:39;96739.13;;;-1.13;95.30
72636;BME280;60679;48.888;15.544;2024-02-14T06:41:05;96747.06;;;-1.03;95.03
72636;BME280;60679;48.888;15.544;2024-02-14T06:43:31;96754.72;;;-0.91;95.01
72636;BME280;60679;48.888;15.544;2024-02-14T06:45:56;96754.13;;;-0.75;95.23
72636;BME280;60679;48.888;15.544;2024-02-14T06:48:22;96745.00;;;-0.53;94.92
72636;BME280;60679;48.888;15.544;2024-02-14T06:50:49;96755.97;;;-0.29;94.53
72636;BME280;60679;48.888;15.544;2024-02-14T06:53:15;96751.03;;;-0.15;94.20
72636;BME280;60679;48.888;15.544;2024-02-14T06:55:40;96747.59;;;0.03;93.67
72636;BME280;60679;48.888;15.544;2024-02-14T06:58:06;96747.78;;;0.19;93.57
72636;BME280;60679;48.888;15.544;2024-02-14T07:00:32;96752.44;;;0.34;92.95
72636;BME280;60679;48.888;15.544;2024-02-14T07:02:58;96750.44;;;0.64;92.56
72636;BME280;60679;48.888;15.544;2024-02-14T07:05:23;96754.66;;;1.27;91.53
72636;BME280;60679;48.888;15.544;2024-02-14T07:07:49;96751.94;;;1.62;90.23
72636;BME280;60679;48.888;15.544;2024-02-14T07:10:15;96747.66;;;1.69;89.94
72636;BME280;60679;48.888;15.544;2024-02-14T07:12:40;96750.69;;;2.42;88.44
72636;BME280;60679;48.888;15.544;2024-02-14T07:15:06;96745.97;;;3.50;85.76
72636;BME280;60679;48.888;15.544;2024-02-14T07:17:31;96739.41;;;4.32;83.66
72636;BME280;60679;48.888;15.544;2024-02-14T07:19:57;96735.38;;;4.75;82.17
72636;BME280;60679;48.888;15.544;2024-02-14T07:22:23;96748.41;;;4.78;81.94
72636;BME280;60679;48.888;15.544;2024-02-14T07:24:48;96740.78;;;4.28;83.47
72636;BME280;60679;48.888;15.544;2024-02-14T07:27:15;96745.09;;;4.29;83.29
72636;BME280;60679;48.888;15.544;2024-02-14T07:29:40;96742.63;;;3.57;84.93
72636;BME280;60679;48.888;15.544;2024-02-14T07:32:06;96741.47;;;3.03;86.83
72636;BME280;60679;48.888;15.544;2024-02-14T07:34:32;96752.13;;;3.03;87.12
72636;BME280;60679;48.888;15.544;2024-02-14T07:36:57;96749.63;;;3.33;86.42
72636;BME280;60679;48.888;15.544;2024-02-14T07:39:26;96745.75;;;3.84;85.64
72636;BME280;60679;48.888;15.544;2024-02-14T07:41:52;96751.06;;;4.47;84.29
72636;BME280;60679;48.888;15.544;2024-02-14T07:44:17;96747.38;;;5.10;82.83
72636;BME280;60679;48.888;15.544;2024-02-14T07:46:43;96749.22;;;4.79;83.63
72636;BME280;60679;48.888;15.544;2024-02-14T07:49:08;96746.75;;;4.38;85.21
72636;BME280;60679;48.888;15.544;2024-02-14T07:51:35;96745.03;;;4.06;85.90
72636;BME280;60679;48.888;15.544;2024-02-14T07:54:03;96750.44;;;3.74;86.09
72636;BME280;60679;48.888;15.544;2024-02-14T07:56:29;96751.28;;;3.59;86.75
72636;BME280;60679;48.888;15.544;2024-02-14T07:58:55;96753.09;;;3.82;86.08
72636;BME280;60679;48.888;15.544;2024-02-14T08:01:20;96757.25;;;6.51;80.32
72636;BME280;60679;48.888;15.544;2024-02-14T08:03:46;96744.50;;;11.94;67.55
72636;BME280;60679;48.888;15.544;2024-02-14T08:06:11;96746.06;;;14.94;61.01
72636;BME280;60679;48.888;15.544;2024-02-14T08:08:37;96745.53;;;16.39;56.93
72636;BME280;60679;48.888;15.544;2024-02-14T08:11:03;96748.19;;;17.05;55.00
72636;BME280;60679;48.888;15.544;2024-02-14T08:13:29;96741.28;;;17.89;53.63
72636;BME280;60679;48.888;15.544;2024-02-14T08:15:54;96748.91;;;18.78;52.36
72636;BME280;60679;48.888;15.544;2024-02-14T08:18:20;96746.88;;;19.52;50.60
72636;BME280;60679;48.888;15.544;2024-02-14T08:20:45;96750.03;;;20.01;49.93
72636;BME280;60679;48.888;15.544;2024-02-14T08:23:11;96755.19;;;19.87;50.23
72636;BME280;60679;48.888;15.544;2024-02-14T08:25:36;96748.91;;;21.03;48.84
72636;BME280;60679;48.888;15.544;2024-02-14T08:28:02;96745.72;;;22.24;47.49
72636;BME280;60679;48.888;15.544;2024-02-14T08:30:28;96747.81;;;23.28;46.22
72636;BME280;60679;48.888;15.544;2024-02-14T08:32:53;96744.34;;;20.63;50.08
72636;BME280;60679;48.888;15.544;2024-02-14T08:35:19;96747.84;;;16.13;57.29
72636;BME280;60679;48.888;15.544;2024-02-14T08:37:45;96747.97;;;12.69;64.58
72636;BME280;60679;48.888;15.544;2024-02-14T08:40:10;96751.47;;;11.15;68.71
72636;BME280;60679;48.888;15.544;2024-02-14T08:42:37;96752.03;;;12.42;66.78
72636;BME280;60679;48.888;15.544;2024-02-14T08:45:04;96758.66;;;11.65;69.59
72636;BME280;60679;48.888;15.544;2024-02-14T08:47:29;96750.88;;;11.06;71.47
72636;BME280;60679;48.888;15.544;2024-02-14T08:49:55;96748.72;;;12.58;67.38
72636;BME280;60679;48.888;15.544;2024-02-14T08:52:20;96750.59;;;13.89;66.01
72636;BME280;60679;48.888;15.544;2024-02-14T08:54:46;96752.44;;;13.77;66.11
72636;BME280;60679;48.888;15.544;2024-02-14T08:57:12;96754.28;;;17.12;59.23
72636;BME280;60679;48.888;15.544;2024-02-14T08:59:37;96745.66;;;17.42;58.22
72636;BME280;60679;48.888;15.544;2024-02-14T09:02:03;96751.72;;;13.70;64.09
72636;BME280;60679;48.888;15.544;2024-02-14T09:04:29;96756.66;;;11.54;69.91
72636;BME280;60679;48.888;15.544;2024-02-14T09:06:54;96757.00;;;10.75;72.30
72636;BME280;60679;48.888;15.544;2024-02-14T09:09:20;96756.63;;;10.65;73.97
72636;BME280;60679;48.888;15.544;2024-02-14T09:11:45;96756.66;;;10.39;74.16
72636;BME280;60679;48.888;15.544;2024-02-14T09:14:13;96763.13;;;10.25;74.69
72636;BME280;60679;48.888;15.544;2024-02-14T09:16:39;96757.94;;;10.10;74.75
72636;BME280;60679;48.888;15.544;2024-02-14T09:19:05;96756.72;;;10.13;74.80
72636;BME280;60679;48.888;15.544;2024-02-14T09:21:33;96753.13;;;9.99;75.71
72636;BME280;60679;48.888;15.544;2024-02-14T09:24:01;96755.22;;;9.77;76.42
72636;BME280;60679;48.888;15.544;2024-02-14T09:26:28;96757.25;;;9.49;77.18
72636;BME280;60679;48.888;15.544;2024-02-14T09:28:54;96761.19;;;9.47;77.11
72636;BME280;60679;48.888;15.544;2024-02-14T09:31:20;96752.47;;;9.51;77.69
72636;BME280;60679;48.888;15.544;2024-02-14T09:33:47;96760.84;;;9.76;77.16
72636;BME280;60679;48.888;15.544;2024-02-14T09:36:13;96748.97;;;10.42;76.34
72636;BME280;60679;48.888;15.544;2024-02-14T09:38:39;96755.78;;;11.22;74.76
72636;BME280;60679;48.888;15.544;2024-02-14T09:41:14;96739.22;;;12.49;73.10
72636;BME280;60679;48.888;15.544;2024-02-14T09:43:44;96739.84;;;12.69;72.40
72636;BME280;60679;48.888;15.544;2024-02-14T09:46:12;96746.72;;;12.29;73.34
72636;BME280;60679;48.888;15.544;2024-02-14T09:48:40;96743.00;;;12.05;73.75
72636;BME280;60679;48.888;15.544;2024-02-14T09:51:08;96738.94;;;12.14;72.79
72636;BME280;60679;48.888;15.544;2024-02-14T09:53:34;96741.59;;;13.18;72.01
72636;BME280;60679;48.888;15.544;2024-02-14T09:56:01;96738.41;;;14.33;69.46
72636;BME280;60679;48.888;15.544;2024-02-14T09:58:27;96736.38;;;16.45;64.88
72636;BME280;60679;48.888;15.544;2024-02-14T10:00:53;96732.63;;;17.27;62.31
72636;BME280;60679;48.888;15.544;2024-02-14T10:03:19;96728.84;;;17.28;61.87
72636;BME280;60679;48.888;15.544;2024-02-14T10:05:45;96736.75;;;18.00;61.36
72636;BME280;60679;48.888;15.544;2024-02-14T10:08:11;96731.56;;;16.52;63.94
72636;BME280;60679;48.888;15.544;2024-02-14T10:10:37;96728.63;;;15.47;66.84
72636;BME280;60679;48.888;15.544;2024-02-14T10:13:06;96735.06;;;16.64;64.67
72636;BME280;60679;48.888;15.544;2024-02-14T10:15:33;96724.84;;;15.76;66.21
72636;BME280;60679;48.888;15.544;2024-02-14T10:17:59;96721.91;;;16.44;64.78
72636;BME280;60679;48.888;15.544;2024-02-14T10:20:28;96723.78;;;17.15;64.17
72636;BME280;60679;48.888;15.544;2024-02-14T10:23:02;96718.19;;;21.11;55.98
72636;BME280;60679;48.888;15.544;2024-02-14T10:25:29;96724.59;;;18.18;60.98
72636;BME280;60679;48.888;15.544;2024-02-14T10:27:54;96720.69;;;16.18;66.56
72636;BME280;60679;48.888;15.544;2024-02-14T10:30:20;96719.50;;;15.53;69.02
72636;BME280;60679;48.888;15.544;2024-02-14T10:32:47;96712.84;;;16.05;67.73
72636;BME280;60679;48.888;15.544;2024-02-14T10:35:15;96718.28;;;15.32;68.99
72636;BME280;60679;48.888;15.544;2024-02-14T10:37:41;96712.97;;;14.63;70.88
72636;BME280;60679;48.888;15.544;2024-02-14T10:40:07;96707.72;;;15.36;70.58
72636;BME280;60679;48.888;15.544;2024-02-14T10:42:34;96715.91;;;16.59;67.46
72636;BME280;60679;48.888;15.544;2024-02-14T10:45:00;96711.13;;;17.09;65.82
72636;BME280;60679;48.888;15.544;2024-02-14T10:47:35;96719.72;;;15.63;69.03
72636;BME280;60679;48.888;15.544;2024-02-14T10:50:03;96718.78;;;14.55;71.04
72636;BME280;60679;48.888;15.544;2024-02-14T10:52:36;96707.84;;;15.01;70.92
72636;BME280;60679;48.888;15.544;2024-02-14T10:55:06;96708.03;;;15.96;69.39
72636;BME280;60679;48.888;15.544;2024-02-14T10:57:32;96705.94;;;17.78;65.93
72636;BME280;60679;48.888;15.544;2024-02-14T11:00:01;96703.25;;;18.88;63.48
72636;BME280;60679;48.888;15.544;2024-02-14T11:02:27;96703.34;;;18.57;64.13
72636;BME280;60679;48.888;15.544;2024-02-14T11:04:56;96701.19;;;16.27;68.68
72636;BME280;60679;48.888;15.544;2024-02-14T11:07:22;96694.38;;;15.34;71.20
72636;BME280;60679;48.888;15.544;2024-02-14T11:09:48;96692.06;;;15.15;73.11
72636;BME280;60679;48.888;15.544;2024-02-14T11:12:15;96697.75;;;14.62;72.73
72636;BME280;60679;48.888;15.544;2024-02-14T11:14:44;96698.72;;;14.44;74.28
72636;BME280;60679;48.888;15.544;2024-02-14T11:17:12;96685.22;;;14.26;74.63
72636;BME280;60679;48.888;15.544;2024-02-14T11:19:38;96687.69;;;14.27;74.46
72636;BME280;60679;48.888;15.544;2024-02-14T11:22:19;96670.66;;;15.18;73.79
72636;BME280;60679;48.888;15.544;2024-02-14T11:24:48;96671.91;;;14.48;75.75
72636;BME280;60679;48.888;15.544;2024-02-14T11:27:14;96676.03;;;14.38;75.59
72636;BME280;60679;48.888;15.544;2024-02-14T11:29:40;96662.66;;;14.60;75.59
72636;BME280;60679;48.888;15.544;2024-02-14T11:32:11;96654.59;;;15.33;73.76
72636;BME280;60679;48.888;15.544;2024-02-14T11:34:36;96659.91;;;15.85;73.40
72636;BME280;60679;48.888;15.544;2024-02-14T11:37:02;96658.94;;;16.62;71.56
72636;BME280;60679;48.888;15.544;2024-02-14T11:39:28;96655.41;;;17.80;69.02
72636;BME280;60679;48.888;15.544;2024-02-14T11:41:56;96641.31;;;17.94;69.10
72636;BME280;60679;48.888;15.544;2024-02-14T11:44:23;96646.09;;;17.76;67.49
72636;BME280;60679;48.888;15.544;2024-02-14T11:46:49;96641.13;;;18.84;66.19
72636;BME280;60679;48.888;15.544;2024-02-14T11:49:14;96641.09;;;20.67;63.14
72636;BME280;60679;48.888;15.544;2024-02-14T11:51:42;96644.22;;;18.14;67.90
72636;BME280;60679;48.888;15.544;2024-02-14T11:54:08;96645.94;;;15.98;72.11
72636;BME280;60679;48.888;15.544;2024-02-14T11:56:36;96646.31;;;14.72;74.91
72636;BME280;60679;48.888;15.544;2024-02-14T11:59:02;96650.34;;;13.65;78.31
72636;BME280;60679;48.888;15.544;2024-02-14T12:01:35;96644.19;;;13.16;80.29
72636;BME280;60679;48.888;15.544;2024-02-14T12:04:02;96643.72;;;12.90;81.08
72636;BME280;60679;48.888;15.544;2024-02-14T12:06:30;96641.72;;;12.67;81.88
72636;BME280;60679;48.888;15.544;2024-02-14T12:08:57;96637.47;;;12.16;82.66
72636;BME280;60679;48.888;15.544;2024-02-14T12:11:27;96642.19;;;11.85;84.12
72636;BME280;60679;48.888;15.544;2024-02-14T12:13:54;96640.31;;;11.85;83.88
72636;BME280;60679;48.888;15.544;2024-02-14T12:16:20;96646.69;;;11.66;83.83
72636;BME280;60679;48.888;15.544;2024-02-14T12:18:46;96637.72;;;11.72;84.14
72636;BME280;60679;48.888;15.544;2024-02-14T12:21:11;96641.06;;;11.68;84.62
72636;BME280;60679;48.888;15.544;2024-02-14T12:23:38;96647.06;;;11.45;85.01
72636;BME280;60679;48.888;15.544;2024-02-14T12:26:04;96649.47;;;11.28;85.00
72636;BME280;60679;48.888;15.544;2024-02-14T12:28:31;96643.28;;;11.21;85.80
72636;BME280;60679;48.888;15.544;2024-02-14T12:30:57;96642.00;;;11.24;85.71
72636;BME280;60679;48.888;15.544;2024-02-14T12:33:24;96650.34;;;11.22;85.80
72636;BME280;60679;48.888;15.544;2024-02-14T12:35:51;96654.75;;;11.17;86.04
72636;BME280;60679;48.888;15.544;2024-02-14T12:38:19;96643.63;;;11.00;85.99
72636;BME280;60679;48.888;15.544;2024-02-14T12:40:45;96643.22;;;10.96;86.10
72636;BME280;60679;48.888;15.544;2024-02-14T12:43:12;96643.50;;;10.88;86.95
72636;BME280;60679;48.888;15.544;2024-02-14T12:45:38;96645.00;;;10.78;86.67